createdAt,value
2023-02-15T05:44:44.122Z,653.58
2023-02-15T05:49:46.334Z,658.10
2023-02-15T05:54:48.269Z,688.83
2023-02-15T05:59:54.591Z,654.50
2023-02-15T06:04:56.846Z,670.57
2023-02-15T06:09:59.010Z,674.13
2023-02-15T06:15:00.972Z,691.83
2023-02-15T06:20:03.809Z,690.50
2023-02-15T06:25:06.107Z,677.20
2023-02-15T06:30:09.927Z,686.63
2023-02-15T06:35:12.894Z,693.53
2023-02-15T06:40:19.156Z,692.17
2023-02-15T06:45:21.133Z,685.07
2023-02-15T06:50:26.909Z,698.70
2023-02-15T06:55:28.915Z,702.77
2023-02-15T07:00:30.891Z,708.23
2023-02-15T07:05:35.006Z,694.13
2023-02-15T07:10:37.046Z,678.67
2023-02-15T07:15:38.969Z,698.73
2023-02-15T07:20:42.685Z,693.27
2023-02-15T07:25:44.581Z,707.57
2023-02-15T07:30:46.780Z,690.77
2023-02-15T07:35:53.036Z,697.13
2023-02-15T07:41:02.505Z,696.97
2023-02-15T07:46:08.506Z,702.63
2023-02-15T07:51:12.500Z,694.17
2023-02-15T07:56:16.238Z,688.63
2023-02-15T08:01:24.260Z,691.23
2023-02-15T08:06:28.507Z,694.17
2023-02-15T08:11:37.682Z,692.93
2023-02-15T08:16:44.306Z,702.07
2023-02-15T08:21:53.457Z,698.53
2023-02-15T08:26:55.995Z,707.63
2023-02-15T08:32:10.192Z,723.97
2023-02-15T08:37:12.304Z,705.67
2023-02-15T08:42:14.765Z,697.23
2023-02-15T08:47:16.672Z,718.47
2023-02-15T08:52:18.642Z,723.30
2023-02-15T08:57:20.575Z,705.70
2023-02-15T09:02:22.603Z,704.70
2023-02-15T09:07:24.666Z,699.67
2023-02-15T09:12:26.730Z,685.80
2023-02-15T09:17:28.730Z,681.03
2023-02-15T09:22:32.291Z,688.87
2023-02-15T09:27:34.414Z,686.20
2023-02-15T09:32:36.329Z,689.37
2023-02-15T09:37:38.308Z,723.50
2023-02-15T09:43:09.707Z,730.50
2023-02-15T09:48:20.765Z,715.87
2023-02-15T09:53:35.411Z,713.58
2023-02-15T09:58:51.610Z,721.10
2023-02-15T10:04:32.650Z,730.50
2023-02-15T10:09:45.814Z,718.10
2023-02-15T10:15:14.840Z,716.57
2023-02-15T10:20:46.054Z,752.45
2023-02-15T10:25:59.752Z,658.42
2023-02-15T10:31:13.996Z,696.95
2023-02-15T10:36:31.356Z,714.05
2023-02-15T10:41:35.394Z,664.97
2023-02-15T10:46:56.305Z,675.40
2023-02-15T10:52:17.308Z,703.00
2023-02-15T10:57:37.708Z,698.50
2023-02-15T11:02:53.066Z,609.47
2023-02-15T11:07:59.217Z,629.60
2023-02-15T11:13:09.794Z,678.88
2023-02-15T11:18:20.745Z,726.75
2023-02-15T11:23:24.953Z,754.55
2023-02-15T11:28:52.245Z,711.33
2023-02-15T11:34:06.015Z,694.10
2023-02-15T11:39:15.341Z,721.72
2023-02-15T11:44:33.650Z,764.30
2023-02-15T11:49:36.204Z,759.13
2023-02-15T11:54:42.858Z,763.58
2023-02-15T11:59:51.785Z,770.53
2023-02-15T12:05:14.678Z,764.90
2023-02-15T12:10:28.912Z,774.90
2023-02-15T12:15:33.273Z,708.00
2023-02-15T12:20:37.436Z,637.67
2023-02-15T12:25:52.169Z,641.47
2023-02-15T12:30:55.928Z,625.90
2023-02-15T12:36:11.321Z,637.83
2023-02-15T12:41:26.469Z,684.78
2023-02-15T12:46:28.388Z,702.45
2023-02-15T12:51:30.403Z,671.25
2023-02-15T12:56:32.441Z,729.25
2023-02-15T13:01:34.746Z,742.78
2023-02-15T13:06:37.777Z,750.25
2023-02-15T13:11:41.874Z,715.88
2023-02-15T13:16:46.907Z,696.42
2023-02-15T13:21:51.834Z,654.67
2023-02-15T13:27:09.374Z,702.80
2023-02-15T13:32:27.619Z,740.75
2023-02-15T13:37:51.270Z,764.10
2023-02-15T13:42:53.111Z,764.03
2023-02-15T13:48:45.651Z,731.03
2023-02-15T13:54:04.161Z,721.95
2023-02-15T13:59:21.330Z,702.30
2023-02-15T14:04:46.678Z,707.83
2023-02-15T14:09:59.109Z,704.65
2023-02-15T14:15:27.078Z,716.22
2023-02-15T14:25:56.122Z,717.75
2023-02-15T14:30:58.876Z,678.15
2023-02-15T14:36:01.810Z,661.20
2023-02-15T14:41:19.766Z,668.88
2023-02-15T14:46:46.087Z,655.38
2023-02-15T14:51:48.216Z,671.20
2023-02-15T14:57:02.422Z,670.53
2023-02-15T15:02:07.416Z,659.78
2023-02-15T15:07:23.660Z,649.83
2023-02-15T15:12:25.521Z,654.60
2023-02-15T15:17:39.603Z,651.35
2023-02-15T15:22:44.076Z,653.10
2023-02-15T15:27:55.984Z,645.03
2023-02-15T15:33:07.749Z,644.03
2023-02-15T15:38:22.619Z,620.20
2023-02-15T15:44:01.759Z,635.58
2023-02-15T15:49:13.363Z,618.50
2023-02-15T15:54:18.357Z,606.60
2023-02-15T15:59:27.277Z,616.47
2023-02-15T16:04:32.219Z,618.10
2023-02-15T16:09:34.236Z,627.95
2023-02-15T16:14:39.346Z,584.78
2023-02-15T16:19:43.287Z,582.33
2023-02-15T16:25:19.197Z,575.08
2023-02-15T16:30:26.839Z,579.65
2023-02-15T16:35:29.000Z,603.33
2023-02-15T16:41:02.531Z,637.00
2023-02-15T16:46:07.287Z,738.80
2023-02-15T16:51:10.113Z,760.08
2023-02-15T16:56:12.078Z,589.63
2023-02-15T17:01:16.693Z,558.13
2023-02-15T17:06:23.653Z,531.55
2023-02-15T17:11:40.715Z,514.67
2023-02-15T17:16:45.684Z,445.63
2023-02-15T17:21:54.028Z,455.80
2023-02-15T17:27:01.033Z,449.60
2023-02-15T17:32:03.415Z,419.83
2023-02-15T17:37:05.433Z,415.08
2023-02-15T17:42:07.333Z,470.15
2023-02-15T17:47:15.811Z,466.13
2023-02-15T17:52:18.713Z,491.83
2023-02-15T17:57:21.097Z,473.67
2023-02-15T18:02:41.804Z,474.02
2023-02-15T18:08:02.269Z,476.85
2023-02-15T18:13:04.909Z,478.88
2023-02-15T18:18:09.824Z,508.23
2023-02-15T18:23:15.236Z,557.80
2023-02-15T18:28:17.710Z,562.22
2023-02-15T18:33:35.773Z,606.50
2023-02-15T18:38:37.806Z,628.65
2023-02-15T18:43:39.709Z,561.72
2023-02-15T18:48:41.675Z,620.78
2023-02-15T18:53:43.654Z,656.30
2023-02-15T18:58:49.567Z,672.25
2023-02-15T19:03:52.012Z,724.53
2023-02-15T19:08:54.038Z,515.88
2023-02-15T19:13:56.117Z,469.77
2023-02-15T19:18:58.899Z,532.55
2023-02-15T19:24:08.570Z,480.05
2023-02-15T19:29:13.546Z,748.28
2023-02-15T19:34:17.505Z,744.28
2023-02-15T19:39:33.054Z,753.45
2023-02-15T19:44:35.111Z,756.22
2023-02-15T19:49:36.945Z,733.87
2023-02-15T19:54:38.908Z,736.63
2023-02-15T19:59:41.667Z,738.80
2023-02-15T20:04:43.759Z,747.80
2023-02-15T20:09:45.864Z,724.83
2023-02-15T20:14:49.156Z,733.77
2023-02-15T20:19:51.147Z,737.03
2023-02-15T20:24:56.298Z,729.37
2023-02-15T20:29:58.296Z,748.15
2023-02-15T20:35:01.217Z,746.75
2023-02-15T20:40:03.450Z,745.35
2023-02-15T20:45:16.369Z,746.30
2023-02-15T20:50:22.716Z,759.35
2023-02-15T20:55:30.325Z,747.08
2023-02-15T21:00:32.840Z,742.58
2023-02-15T21:05:38.952Z,743.42
2023-02-15T21:11:05.651Z,750.35
2023-02-15T21:16:09.554Z,745.00
2023-02-15T21:21:20.770Z,744.33
2023-02-15T21:26:23.593Z,744.72
2023-02-15T21:31:31.635Z,743.58
2023-02-15T21:36:33.810Z,743.72
2023-02-15T21:41:57.925Z,740.50
2023-02-15T21:47:19.242Z,737.97
2023-02-15T21:52:23.685Z,751.42
2023-02-15T21:57:25.795Z,748.78
2023-02-15T22:02:31.762Z,739.47
2023-02-15T22:07:53.580Z,742.88
2023-02-15T22:12:55.966Z,741.65
2023-02-15T22:17:58.034Z,741.58
2023-02-15T22:22:59.966Z,742.05
2023-02-15T22:28:01.999Z,741.92
2023-02-15T22:33:04.173Z,741.00
2023-02-15T22:38:06.150Z,712.10
2023-02-15T22:43:19.510Z,746.05
2023-02-15T22:48:22.800Z,739.33
2023-02-15T22:53:25.214Z,741.80
2023-02-15T22:58:28.637Z,740.17
2023-02-15T23:03:32.509Z,733.22
2023-02-15T23:08:34.410Z,740.08
2023-02-15T23:13:36.595Z,737.47
2023-02-15T23:18:41.241Z,736.33
2023-02-15T23:23:45.447Z,731.53
2023-02-15T23:28:48.914Z,736.75
2023-02-15T23:33:52.664Z,744.22
2023-02-15T23:38:56.644Z,737.45
2023-02-15T23:44:02.252Z,745.58
2023-02-15T23:49:14.870Z,735.03
2023-02-15T23:54:19.855Z,743.38
2023-02-15T23:59:24.828Z,736.75
